Time;durP1;ratioP1;P1;durP2;ratioP2;P2;SDS_P1;SDS_P2;PMS_P1;PMS_P2;Temp;Humidity;BMP_temperature;BMP_pressure;BME280_temperature;BME280_humidity;BME280_pressure;Samples;Min_cycle;Max_cycle;Signal;HPM_P1;HPM_P2
2023/07/09 00:01:37;;;;;;;6.35;3.15;;;19.70;73.70;;;;;;5013975;28;20026;-75
2023/07/09 00:04:03;;;;;;;7.15;3.40;;;19.70;73.40;;;;;;5006760;28;20084;-75
2023/07/09 00:06:29;;;;;;;5.47;3.17;;;19.60;73.40;;;;;;5009718;28;20085;-75
2023/07/09 00:08:55;;;;;;;10.63;3.15;;;19.50;73.30;;;;;;5006525;28;20041;-75
2023/07/09 00:11:21;;;;;;;7.03;3.72;;;19.50;73.60;;;;;;4996094;28;20025;-75
2023/07/09 00:13:46;;;;;;;5.53;3.17;;;19.50;73.30;;;;;;5021275;28;20056;-75
2023/07/09 00:16:16;;;;;;;6.57;3.35;;;19.50;73.30;;;;;;5006705;28;20497;-75
2023/07/09 00:18:42;;;;;;;7.57;3.47;;;19.40;73.60;;;;;;5008950;28;20197;-75
2023/07/09 00:21:08;;;;;;;4.88;3.00;;;19.40;73.90;;;;;;5009303;28;20133;-75
2023/07/09 00:23:33;;;;;;;5.75;3.35;;;19.30;73.80;;;;;;5005219;28;20030;-75
2023/07/09 00:25:59;;;;;;;9.32;3.50;;;19.30;73.80;;;;;;5003241;28;20069;-75
2023/07/09 00:28:25;;;;;;;8.55;3.60;;;19.30;74.10;;;;;;5003797;28;20129;-75
2023/07/09 00:30:50;;;;;;;6.50;3.42;;;19.20;74.20;;;;;;5009432;28;20034;-75
2023/07/09 00:33:20;;;;;;;8.35;3.00;;;19.20;74.10;;;;;;5007995;28;20121;-75
2023/07/09 00:35:48;;;;;;;8.00;3.55;;;19.10;74.30;;;;;;5008171;28;20036;-75
2023/07/09 00:38:16;;;;;;;12.00;4.18;;;19.10;74.30;;;;;;5005803;28;20184;-75
2023/07/09 00:40:59;;;;;;;6.25;3.55;;;19.00;74.10;;;;;;5016056;28;20042;-75
2023/07/09 00:43:29;;;;;;;9.15;4.07;;;19.00;74.70;;;;;;5023255;28;20042;-75
2023/07/09 00:46:20;;;;;;;8.80;3.65;;;19.00;74.20;;;;;;5015420;28;20022;-75
2023/07/09 00:48:53;;;;;;;7.30;3.33;;;19.00;74.00;;;;;;5012888;28;20045;-75
2023/07/09 00:51:21;;;;;;;7.60;3.30;;;19.00;74.20;;;;;;5010972;28;20088;-75
2023/07/09 00:53:51;;;;;;;7.53;4.10;;;19.00;73.50;;;;;;5014990;28;20125;-75
2023/07/09 00:56:27;;;;;;;7.15;3.50;;;19.00;73.80;;;;;;5013536;28;20052;-75
2023/07/09 00:58:55;;;;;;;9.10;3.97;;;19.00;73.50;;;;;;5012919;28;20029;-75
2023/07/09 01:01:21;;;;;;;7.65;3.78;;;19.10;72.70;;;;;;5010194;28;20037;-75
2023/07/09 01:03:50;;;;;;;6.88;3.28;;;19.00;72.60;;;;;;5010317;28;20103;-76
2023/07/09 01:06:20;;;;;;;9.02;4.10;;;19.00;72.90;;;;;;5004230;28;20022;-75
2023/07/09 01:08:45;;;;;;;9.48;3.80;;;19.00;72.90;;;;;;5007679;28;20370;-75
2023/07/09 01:11:21;;;;;;;13.07;3.70;;;19.00;72.40;;;;;;5010060;28;20030;-74
2023/07/09 01:13:48;;;;;;;11.13;4.00;;;19.00;72.60;;;;;;5011191;28;20061;-75
2023/07/09 01:16:15;;;;;;;10.10;3.67;;;19.00;73.00;;;;;;5019649;28;20018;-75
2023/07/09 01:18:40;;;;;;;8.35;4.15;;;19.00;72.30;;;;;;5011671;28;20049;-75
2023/07/09 01:21:15;;;;;;;6.75;3.50;;;19.00;72.60;;;;;;5015490;28;20362;-75
2023/07/09 01:23:44;;;;;;;5.63;3.40;;;18.90;72.90;;;;;;5009908;28;20542;-75
2023/07/09 01:26:21;;;;;;;9.00;3.92;;;18.80;73.20;;;;;;5000616;28;20491;-75
2023/07/09 01:28:48;;;;;;;7.20;3.80;;;18.70;73.60;;;;;;5026618;28;20346;-75
2023/07/09 01:31:15;;;;;;;10.05;4.28;;;18.60;74.10;;;;;;5018198;28;20068;-75
2023/07/09 01:33:44;;;;;;;10.90;4.05;;;18.50;74.30;;;;;;5011104;28;20033;-75
2023/07/09 01:36:13;;;;;;;7.05;4.03;;;18.50;74.30;;;;;;5017741;28;20626;-75
2023/07/09 01:38:42;;;;;;;9.90;4.10;;;18.40;74.50;;;;;;5008310;28;20138;-75
2023/07/09 01:41:11;;;;;;;5.22;3.53;;;18.40;74.50;;;;;;5007554;28;20022;-75
2023/07/09 01:43:36;;;;;;;8.90;4.40;;;18.30;74.70;;;;;;5005254;28;20417;-75
2023/07/09 01:46:02;;;;;;;7.28;3.90;;;18.50;74.20;;;;;;5009281;28;20030;-75
2023/07/09 01:48:27;;;;;;;6.47;3.63;;;18.40;74.50;;;;;;5008332;28;20054;-75
2023/07/09 01:50:54;;;;;;;5.85;3.60;;;18.40;74.70;;;;;;5021884;28;20026;-75
2023/07/09 01:53:25;;;;;;;7.72;3.65;;;18.30;74.80;;;;;;5007205;28;20052;-75
2023/07/09 01:55:51;;;;;;;5.78;3.72;;;18.20;75.00;;;;;;5004360;28;20065;-75
2023/07/09 01:58:16;;;;;;;7.22;3.92;;;18.10;75.40;;;;;;5018963;28;20160;-75
2023/07/09 02:00:43;;;;;;;5.68;3.83;;;18.10;75.70;;;;;;5008673;28;20116;-75
2023/07/09 02:03:08;;;;;;;6.15;4.13;;;18.00;75.70;;;;;;5009905;28;20041;-75
2023/07/09 02:05:35;;;;;;;9.70;3.72;;;18.00;75.80;;;;;;5008332;28;20111;-75
2023/07/09 02:08:01;;;;;;;6.20;3.70;;;17.90;76.00;;;;;;5004803;28;20035;-75
2023/07/09 02:10:27;;;;;;;5.78;4.05;;;17.90;76.30;;;;;;5006636;28;20420;-75
2023/07/09 02:12:53;;;;;;;6.22;3.78;;;17.80;76.20;;;;;;5007903;28;20342;-75
2023/07/09 02:15:18;;;;;;;5.57;3.42;;;17.90;75.90;;;;;;5011153;28;20052;-75
2023/07/09 02:17:44;;;;;;;7.18;3.85;;;17.90;76.30;;;;;;5004856;28;20336;-75
2023/07/09 02:20:10;;;;;;;7.05;3.90;;;17.90;76.30;;;;;;5005915;28;20493;-75
2023/07/09 02:22:37;;;;;;;6.95;3.80;;;17.80;76.30;;;;;;5013704;28;20030;-74
2023/07/09 02:25:03;;;;;;;7.22;4.00;;;17.90;75.90;;;;;;5000810;28;20029;-75
2023/07/09 02:27:29;;;;;;;6.30;3.78;;;17.90;75.70;;;;;;5009047;28;20093;-75
2023/07/09 02:29:55;;;;;;;8.00;3.80;;;17.90;76.10;;;;;;5005199;28;20509;-75
2023/07/09 02:32:25;;;;;;;6.55;3.70;;;17.90;76.00;;;;;;5013028;28;20044;-75
2023/07/09 02:34:52;;;;;;;7.75;4.07;;;17.90;75.90;;;;;;5005824;28;20082;-75
2023/07/09 02:37:20;;;;;;;6.28;4.13;;;17.80;75.70;;;;;;5011492;28;20117;-75
2023/07/09 02:39:45;;;;;;;6.55;3.65;;;17.90;75.70;;;;;;5007604;28;20034;-75
2023/07/09 02:42:13;;;;;;;6.15;3.90;;;17.70;76.10;;;;;;5012852;28;20517;-74
2023/07/09 02:44:41;;;;;;;5.88;3.75;;;17.70;76.10;;;;;;5011753;28;20033;-75
2023/07/09 02:47:07;;;;;;;5.90;3.85;;;17.70;76.10;;;;;;5005001;28;20140;-75
2023/07/09 02:49:32;;;;;;;6.50;4.07;;;17.70;76.20;;;;;;5007011;28;20350;-75
2023/07/09 02:51:58;;;;;;;8.38;3.60;;;17.60;76.40;;;;;;5006935;28;20022;-75
2023/07/09 02:54:23;;;;;;;6.80;3.80;;;17.60;76.50;;;;;;5006536;28;20093;-75
2023/07/09 02:56:49;;;;;;;6.03;3.75;;;17.60;76.50;;;;;;5013240;28;20041;-75
2023/07/09 02:59:14;;;;;;;6.55;3.55;;;17.50;76.60;;;;;;5001231;28;20037;-75
2023/07/09 03:01:40;;;;;;;7.55;4.20;;;17.50;76.90;;;;;;5002619;28;20030;-75
2023/07/09 03:04:05;;;;;;;7.97;4.03;;;17.50;76.80;;;;;;5005319;28;20033;-75
2023/07/09 03:06:33;;;;;;;6.60;3.90;;;17.50;77.00;;;;;;5006342;28;20184;-75
2023/07/09 03:09:00;;;;;;;7.55;4.00;;;17.40;77.30;;;;;;5006621;28;20323;-75
2023/07/09 03:11:27;;;;;;;8.80;3.90;;;17.50;77.00;;;;;;5014101;28;20108;-75
2023/07/09 03:13:53;;;;;;;5.97;3.95;;;17.40;77.40;;;;;;5009438;28;20027;-75
2023/07/09 03:16:19;;;;;;;5.78;3.83;;;17.30;77.30;;;;;;5004293;28;20440;-75
2023/07/09 03:18:45;;;;;;;6.97;4.05;;;17.30;77.70;;;;;;5009793;28;20087;-75
2023/07/09 03:21:11;;;;;;;6.38;3.60;;;17.30;77.70;;;;;;5006756;28;20189;-75
2023/07/09 03:23:36;;;;;;;6.63;3.80;;;17.40;77.40;;;;;;5009508;28;20040;-74
2023/07/09 03:26:02;;;;;;;7.40;4.10;;;17.30;77.70;;;;;;5006512;28;20061;-75
2023/07/09 03:28:30;;;;;;;7.65;4.20;;;17.30;77.90;;;;;;5018542;28;20041;-74
2023/07/09 03:30:55;;;;;;;6.63;3.85;;;17.30;77.70;;;;;;5001442;28;20117;-75
2023/07/09 03:33:23;;;;;;;10.32;4.00;;;17.30;77.80;;;;;;5005294;28;20038;-75
2023/07/09 03:35:49;;;;;;;6.75;4.28;;;17.30;78.10;;;;;;5004535;28;20026;-75
2023/07/09 03:38:15;;;;;;;6.40;4.05;;;17.20;78.10;;;;;;5007496;28;20399;-75
2023/07/09 03:40:40;;;;;;;7.45;3.95;;;17.20;78.00;;;;;;5006932;28;20098;-75
2023/07/09 03:43:08;;;;;;;6.95;3.55;;;17.20;78.20;;;;;;5007091;28;20078;-75
2023/07/09 03:45:34;;;;;;;10.60;4.68;;;17.30;78.20;;;;;;5005982;28;20061;-75
2023/07/09 03:48:00;;;;;;;6.45;4.03;;;17.20;78.20;;;;;;5007520;28;20029;-75
2023/07/09 03:50:25;;;;;;;8.05;4.18;;;17.30;78.10;;;;;;5002806;28;20096;-75
2023/07/09 03:52:52;;;;;;;6.40;4.00;;;17.30;78.50;;;;;;5007376;28;20307;-75
2023/07/09 03:55:17;;;;;;;8.60;4.00;;;17.30;78.00;;;;;;5004469;28;20037;-75
2023/07/09 03:57:43;;;;;;;8.98;4.18;;;17.30;78.20;;;;;;5009431;28;20102;-75
2023/07/09 04:00:11;;;;;;;6.45;3.85;;;17.30;77.90;;;;;;5002570;28;20029;-74
2023/07/09 04:02:38;;;;;;;7.10;4.15;;;17.30;78.30;;;;;;5007320;28;20120;-75
2023/07/09 04:05:05;;;;;;;7.05;3.90;;;17.40;78.00;;;;;;5010999;28;20119;-75
2023/07/09 04:07:30;;;;;;;6.10;4.03;;;17.30;78.50;;;;;;5006380;28;20030;-74
2023/07/09 04:09:56;;;;;;;5.47;3.80;;;17.40;78.00;;;;;;5005479;28;20117;-75
2023/07/09 04:12:21;;;;;;;7.32;3.97;;;17.40;78.00;;;;;;5002719;28;20355;-75
2023/07/09 04:14:47;;;;;;;9.48;3.97;;;17.50;78.10;;;;;;5008603;28;20120;-75
2023/07/09 04:17:12;;;;;;;8.27;3.92;;;17.50;78.10;;;;;;5010766;28;20099;-75
2023/07/09 04:19:38;;;;;;;6.70;4.28;;;17.50;77.80;;;;;;5006557;28;20123;-75
2023/07/09 04:22:04;;;;;;;7.00;4.15;;;17.60;77.40;;;;;;5004603;28;20432;-75
2023/07/09 04:24:33;;;;;;;8.48;4.00;;;17.60;77.40;;;;;;5004035;28;20443;-75
2023/07/09 04:27:02;;;;;;;7.63;4.55;;;17.70;77.40;;;;;;5008446;28;20025;-74
2023/07/09 04:29:29;;;;;;;6.53;3.60;;;17.70;77.20;;;;;;5006909;28;20113;-69
2023/07/09 04:31:54;;;;;;;9.18;3.83;;;17.70;77.40;;;;;;5009975;28;20033;-69
2023/07/09 04:34:20;;;;;;;10.60;4.25;;;17.80;76.50;;;;;;5003427;28;20375;-70
2023/07/09 04:36:45;;;;;;;6.20;3.55;;;17.90;76.50;;;;;;5014818;28;20022;-69
2023/07/09 04:39:10;;;;;;;6.25;3.58;;;18.00;76.30;;;;;;4999827;28;20077;-69
2023/07/09 04:41:36;;;;;;;7.15;3.60;;;18.00;76.10;;;;;;5005387;28;20026;-69
2023/07/09 04:44:01;;;;;;;7.60;3.80;;;18.10;75.80;;;;;;5005334;28;20501;-69
2023/07/09 04:46:27;;;;;;;7.63;4.15;;;18.10;76.60;;;;;;5001924;28;20045;-70
2023/07/09 04:48:52;;;;;;;7.90;4.10;;;18.20;76.00;;;;;;5002316;28;20158;-70
2023/07/09 04:51:18;;;;;;;7.40;3.50;;;18.30;75.50;;;;;;5002863;28;20033;-69
2023/07/09 04:53:43;;;;;;;6.00;4.05;;;18.30;75.70;;;;;;5009525;28;20109;-70
2023/07/09 04:56:09;;;;;;;7.93;3.90;;;18.30;75.70;;;;;;5018979;28;20048;-69
2023/07/09 04:58:35;;;;;;;6.60;4.10;;;18.40;76.10;;;;;;5002411;28;20109;-70
2023/07/09 05:01:01;;;;;;;7.78;3.72;;;18.50;75.70;;;;;;5001997;28;20370;-70
2023/07/09 05:03:26;;;;;;;7.28;4.10;;;18.50;75.30;;;;;;5013485;28;20041;-70
2023/07/09 05:05:52;;;;;;;6.88;3.95;;;18.50;75.50;;;;;;5008728;28;20383;-69
2023/07/09 05:08:18;;;;;;;6.40;3.30;;;18.60;74.70;;;;;;5001802;28;20365;-69
2023/07/09 05:10:45;;;;;;;6.88;4.55;;;18.70;74.80;;;;;;5004756;28;20034;-69
2023/07/09 05:13:11;;;;;;;6.68;3.90;;;18.80;73.90;;;;;;5003726;28;20112;-69
2023/07/09 05:15:40;;;;;;;5.90;3.63;;;18.80;73.50;;;;;;5009211;28;20062;-69
2023/07/09 05:18:07;;;;;;;5.32;3.50;;;18.90;74.00;;;;;;5006843;28;20030;-70
2023/07/09 05:20:33;;;;;;;5.50;3.60;;;19.00;73.60;;;;;;5003481;28;20161;-69
2023/07/09 05:22:58;;;;;;;5.18;3.60;;;19.10;73.60;;;;;;5007103;28;20120;-69
2023/07/09 05:25:24;;;;;;;4.70;3.30;;;19.10;73.60;;;;;;5002755;28;20092;-69
2023/07/09 05:27:49;;;;;;;8.02;3.88;;;19.30;71.70;;;;;;5008956;28;21257;-69
2023/07/09 05:30:15;;;;;;;6.25;3.72;;;19.40;72.40;;;;;;5008107;28;20038;-68
2023/07/09 05:32:40;;;;;;;4.85;3.60;;;19.50;72.20;;;;;;5004820;28;20034;-69
2023/07/09 05:35:06;;;;;;;9.38;4.10;;;19.50;71.40;;;;;;5010515;28;20043;-69
2023/07/09 05:37:32;;;;;;;6.25;3.70;;;19.60;71.60;;;;;;5006818;28;20477;-69
2023/07/09 05:39:57;;;;;;;5.35;3.50;;;19.70;71.10;;;;;;5004330;28;20152;-69
2023/07/09 05:42:23;;;;;;;6.72;3.75;;;19.80;69.90;;;;;;5006283;28;20048;-69
2023/07/09 05:44:48;;;;;;;5.70;3.60;;;19.90;70.00;;;;;;5005294;28;20475;-68
2023/07/09 05:47:14;;;;;;;9.10;3.72;;;20.00;69.40;;;;;;5011593;28;20086;-69
2023/07/09 05:49:39;;;;;;;8.00;4.10;;;20.10;70.00;;;;;;5009201;28;20030;-69
2023/07/09 05:52:05;;;;;;;7.70;3.50;;;20.20;70.00;;;;;;5007383;28;20421;-69
2023/07/09 05:54:31;;;;;;;7.28;3.67;;;20.30;69.30;;;;;;5006152;28;20068;-69
2023/07/09 05:56:57;;;;;;;5.55;3.25;;;20.30;69.60;;;;;;5005309;28;20061;-68
2023/07/09 05:59:23;;;;;;;5.80;3.60;;;20.40;69.50;;;;;;5007155;28;20180;-69
2023/07/09 06:01:48;;;;;;;6.68;3.72;;;20.50;69.50;;;;;;4998133;28;20152;-67
2023/07/09 06:04:14;;;;;;;6.13;3.20;;;20.50;69.90;;;;;;5005208;28;20374;-66
2023/07/09 06:06:41;;;;;;;5.57;3.72;;;20.60;68.70;;;;;;4998848;28;20532;-67
2023/07/09 06:09:10;;;;;;;7.13;3.55;;;20.80;69.30;;;;;;5010174;28;20034;-69
2023/07/09 06:11:35;;;;;;;5.32;3.25;;;20.90;68.40;;;;;;5002677;28;20057;-66
2023/07/09 06:14:01;;;;;;;6.60;3.25;;;21.00;69.30;;;;;;5003466;28;20116;-66
2023/07/09 06:16:27;;;;;;;4.97;3.33;;;21.10;69.00;;;;;;5009504;28;20030;-67
2023/07/09 06:18:52;;;;;;;6.88;3.53;;;21.30;69.10;;;;;;5007094;28;20085;-67
2023/07/09 06:21:18;;;;;;;6.63;3.42;;;21.40;67.10;;;;;;5003996;28;20112;-68
2023/07/09 06:23:45;;;;;;;7.80;3.70;;;21.60;66.60;;;;;;5006762;28;20033;-66
2023/07/09 06:26:11;;;;;;;7.63;3.58;;;21.50;67.30;;;;;;5008817;28;20060;-67
2023/07/09 06:28:36;;;;;;;5.32;3.03;;;21.60;64.90;;;;;;5005827;28;20228;-67
2023/07/09 06:31:02;;;;;;;6.32;3.60;;;21.90;66.90;;;;;;5009639;28;20033;-67
2023/07/09 06:33:28;;;;;;;6.72;3.58;;;21.80;65.20;;;;;;5003287;28;20459;-67
2023/07/09 06:36:00;;;;;;;7.72;3.33;;;22.00;65.80;;;;;;5000804;28;20026;-67
2023/07/09 06:38:26;;;;;;;5.93;3.72;;;22.20;66.30;;;;;;5001423;28;20391;-67
2023/07/09 06:40:52;;;;;;;5.45;3.60;;;22.40;66.30;;;;;;5002234;28;20045;-67
2023/07/09 06:43:17;;;;;;;8.00;3.42;;;22.50;65.50;;;;;;5004783;28;20037;-68
2023/07/09 06:45:51;;;;;;;4.93;3.15;;;22.50;65.60;;;;;;4998864;28;20535;-70
2023/07/09 06:48:17;;;;;;;5.70;3.50;;;22.60;65.20;;;;;;4999764;28;20376;-69
2023/07/09 06:50:43;;;;;;;5.75;3.50;;;22.60;64.90;;;;;;4996893;28;20175;-67
2023/07/09 06:53:09;;;;;;;6.63;3.50;;;22.50;63.30;;;;;;5006999;28;20038;-67
2023/07/09 06:55:35;;;;;;;5.80;3.65;;;22.70;64.40;;;;;;5010709;28;20462;-67
2023/07/09 06:58:00;;;;;;;5.53;3.33;;;22.90;63.80;;;;;;5013423;28;20109;-66
2023/07/09 07:00:25;;;;;;;6.18;3.75;;;23.00;63.60;;;;;;5001232;28;20053;-68
2023/07/09 07:02:51;;;;;;;8.07;3.95;;;23.00;63.50;;;;;;5005468;28;20241;-68
2023/07/09 07:05:17;;;;;;;5.47;3.35;;;23.30;65.10;;;;;;5003507;28;20505;-67
2023/07/09 07:07:43;;;;;;;5.60;3.78;;;23.30;62.30;;;;;;5001444;28;20111;-67
2023/07/09 07:10:09;;;;;;;4.88;3.45;;;23.50;63.10;;;;;;5002644;28;20372;-67
2023/07/09 07:12:45;;;;;;;4.78;3.42;;;23.60;61.70;;;;;;5000975;28;20137;-66
2023/07/09 07:15:13;;;;;;;5.63;3.60;;;23.90;63.40;;;;;;4999918;28;20163;-69
2023/07/09 07:17:39;;;;;;;5.03;3.33;;;24.10;62.50;;;;;;5004264;28;20353;-67
2023/07/09 07:20:06;;;;;;;8.35;3.83;;;24.00;60.20;;;;;;5003333;28;20049;-70
2023/07/09 07:22:31;;;;;;;6.80;3.65;;;24.10;59.80;;;;;;5008505;28;20026;-70
2023/07/09 07:24:57;;;;;;;6.03;3.30;;;24.10;61.60;;;;;;4998906;28;20041;-71
2023/07/09 07:27:22;;;;;;;5.70;3.50;;;24.50;63.20;;;;;;5013989;28;20096;-70
2023/07/09 07:29:48;;;;;;;8.65;4.25;;;24.50;58.90;;;;;;5009144;28;20037;-70
2023/07/09 07:32:13;;;;;;;6.72;3.60;;;24.70;62.00;;;;;;4996924;28;20041;-70
2023/07/09 07:34:38;;;;;;;6.90;3.47;;;25.00;60.70;;;;;;5003864;28;20091;-71
2023/07/09 07:37:04;;;;;;;5.03;3.35;;;25.20;60.00;;;;;;5005276;28;20084;-69
2023/07/09 07:39:29;;;;;;;6.40;3.40;;;25.50;58.90;;;;;;5003269;28;20053;-70
2023/07/09 07:41:55;;;;;;;8.15;3.63;;;25.20;57.40;;;;;;5009238;28;20056;-70
2023/07/09 07:44:21;;;;;;;5.90;3.58;;;25.60;58.60;;;;;;4999684;28;20473;-70
2023/07/09 07:46:47;;;;;;;6.47;3.72;;;25.80;57.40;;;;;;5009366;28;20042;-70
2023/07/09 07:49:12;;;;;;;7.38;3.25;;;25.90;55.90;;;;;;5002510;28;20053;-70
2023/07/09 07:51:38;;;;;;;7.03;3.60;;;26.00;55.80;;;;;;5002495;28;20120;-70
2023/07/09 07:54:04;;;;;;;6.65;3.30;;;26.20;57.00;;;;;;5001592;28;20118;-70
2023/07/09 07:56:30;;;;;;;6.78;3.70;;;26.30;56.60;;;;;;5007479;28;20068;-70
2023/07/09 07:58:55;;;;;;;8.93;3.63;;;26.30;57.80;;;;;;5005902;28;20392;-70
2023/07/09 08:01:21;;;;;;;5.97;3.65;;;26.50;58.50;;;;;;5001509;28;20041;-72
2023/07/09 08:03:46;;;;;;;5.50;3.28;;;26.30;56.20;;;;;;5007173;28;20034;-70
2023/07/09 08:06:12;;;;;;;6.35;3.60;;;26.70;58.60;;;;;;4998333;28;20125;-71
2023/07/09 08:08:38;;;;;;;7.43;3.55;;;26.70;57.10;;;;;;5002660;28;20036;-71
2023/07/09 08:11:07;;;;;;;5.03;3.47;;;26.90;57.80;;;;;;4993546;28;20027;-71
2023/07/09 08:13:34;;;;;;;8.45;3.40;;;26.90;56.10;;;;;;5000663;28;20334;-71
2023/07/09 08:16:00;;;;;;;5.55;3.60;;;27.00;55.30;;;;;;5003570;28;20149;-70
2023/07/09 08:18:25;;;;;;;6.25;3.35;;;27.20;55.30;;;;;;5006911;28;20088;-69
2023/07/09 08:20:51;;;;;;;5.28;3.30;;;27.50;55.00;;;;;;5002165;28;20129;-71
2023/07/09 08:23:16;;;;;;;5.90;3.40;;;27.30;54.00;;;;;;5011818;28;20404;-71
2023/07/09 08:25:42;;;;;;;5.13;3.80;;;27.40;55.20;;;;;;5001701;28;20038;-71
2023/07/09 08:28:07;;;;;;;9.25;3.50;;;27.50;56.00;;;;;;4998851;28;20022;-71
2023/07/09 08:30:33;;;;;;;7.50;4.00;;;27.70;56.00;;;;;;5002793;28;20323;-71
2023/07/09 08:32:59;;;;;;;5.38;3.45;;;28.00;54.90;;;;;;5007044;28;20377;-71
2023/07/09 08:35:24;;;;;;;4.45;3.40;;;28.00;51.70;;;;;;5003313;28;20454;-70
2023/07/09 08:37:50;;;;;;;7.20;3.55;;;27.90;51.80;;;;;;5003197;28;20034;-70
2023/07/09 08:40:16;;;;;;;7.35;3.53;;;28.20;52.00;;;;;;4999284;28;20442;-70
2023/07/09 08:42:52;;;;;;;6.60;3.38;;;28.40;52.40;;;;;;5002322;28;20128;-71
2023/07/09 08:45:39;;;;;;;6.55;3.55;;;28.70;55.10;;;;;;5007369;28;20399;-71
2023/07/09 08:48:13;;;;;;;6.28;3.50;;;28.90;54.00;;;;;;5018041;28;20034;-70
2023/07/09 08:50:43;;;;;;;6.32;3.17;;;29.00;52.50;;;;;;5002665;28;20371;-70
2023/07/09 08:53:18;;;;;;;6.75;3.53;;;29.10;53.70;;;;;;5000129;28;20153;-70
2023/07/09 08:55:46;;;;;;;6.15;3.20;;;29.20;52.80;;;;;;5008724;28;20468;-70
2023/07/09 08:58:24;;;;;;;6.40;3.42;;;29.40;51.80;;;;;;5007062;28;20098;-70
2023/07/09 09:00:55;;;;;;;7.28;3.33;;;29.80;50.40;;;;;;5005917;28;20489;-70
2023/07/09 09:03:40;;;;;;;6.90;3.10;;;29.70;51.60;;;;;;5018964;28;20547;-72
2023/07/09 09:06:15;;;;;;;6.97;3.47;;;30.00;51.10;;;;;;5011798;28;20273;-70
2023/07/09 09:08:53;;;;;;;7.57;3.30;;;29.90;53.50;;;;;;5005691;28;20113;-70
2023/07/09 09:11:43;;;;;;;4.90;3.50;;;29.60;51.80;;;;;;5001270;28;20077;-70
2023/07/09 09:14:30;;;;;;;4.95;3.25;;;29.60;54.00;;;;;;5001927;28;20109;-71
2023/07/09 09:16:56;;;;;;;7.35;3.67;;;29.80;53.80;;;;;;5006580;28;20021;-70
2023/07/09 09:19:46;;;;;;;4.45;3.13;;;29.90;52.80;;;;;;5009967;28;20041;-70
2023/07/09 09:22:16;;;;;;;5.13;3.20;;;30.00;50.70;;;;;;5006933;28;20025;-70
2023/07/09 09:24:53;;;;;;;5.38;3.22;;;30.50;51.60;;;;;;4999647;28;20120;-71
2023/07/09 09:27:19;;;;;;;5.30;3.60;;;30.70;50.40;;;;;;5012057;28;20104;-72
2023/07/09 09:29:44;;;;;;;4.43;3.20;;;30.70;51.90;;;;;;5004224;28;20412;-70
2023/07/09 09:32:27;;;;;;;6.80;3.20;;;30.70;47.70;;;;;;5008301;28;20105;-70
2023/07/09 09:34:53;;;;;;;7.93;3.83;;;30.90;52.70;;;;;;4994707;28;20093;-72
2023/07/09 09:37:31;;;;;;;5.28;3.53;;;30.90;50.80;;;;;;5008796;28;20088;-69
2023/07/09 09:39:59;;;;;;;6.28;3.47;;;31.00;49.20;;;;;;5001671;28;20115;-70
2023/07/09 09:42:25;;;;;;;5.03;3.40;;;31.00;46.30;;;;;;5006198;28;20030;-70
2023/07/09 09:44:54;;;;;;;5.57;3.22;;;31.40;48.40;;;;;;5006202;28;20479;-71
2023/07/09 09:47:19;;;;;;;8.15;3.63;;;31.50;49.90;;;;;;5004706;28;20143;-70
2023/07/09 09:49:45;;;;;;;5.72;3.00;;;31.60;46.10;;;;;;5003277;28;20034;-73
2023/07/09 09:52:16;;;;;;;5.63;3.03;;;31.60;45.70;;;;;;4999471;28;20110;-72
2023/07/09 09:54:53;;;;;;;6.43;3.28;;;31.90;44.80;;;;;;5010221;28;20037;-70
2023/07/09 09:57:24;;;;;;;5.82;3.30;;;31.90;47.70;;;;;;5004419;28;20033;-70
2023/07/09 09:59:49;;;;;;;8.13;3.60;;;32.20;48.40;;;;;;5007642;28;20165;-71
2023/07/09 10:02:24;;;;;;;4.45;3.00;;;32.30;46.90;;;;;;4997276;28;20124;-72
2023/07/09 10:04:51;;;;;;;7.10;3.58;;;32.30;47.40;;;;;;4996503;28;20065;-71
2023/07/09 10:07:31;;;;;;;4.82;3.10;;;32.60;47.60;;;;;;5001216;28;20072;-71
2023/07/09 10:09:58;;;;;;;6.82;3.22;;;32.30;43.60;;;;;;5002260;28;20319;-71
2023/07/09 10:12:52;;;;;;;5.82;3.22;;;32.50;44.60;;;;;;5000509;28;20053;-70
2023/07/09 10:15:34;;;;;;;6.97;2.88;;;32.80;43.90;;;;;;5005287;28;20022;-71
2023/07/09 10:18:32;;;;;;;5.25;2.65;;;32.90;45.80;;;;;;5001715;28;20327;-72
2023/07/09 10:21:09;;;;;;;5.78;3.00;;;32.60;42.50;;;;;;4995273;28;20050;-70
2023/07/09 10:24:02;;;;;;;7.45;3.50;;;32.70;42.30;;;;;;5002954;28;20074;-69
2023/07/09 10:26:37;;;;;;;4.80;2.72;;;33.10;45.80;;;;;;5001341;28;20544;-69
2023/07/09 10:29:23;;;;;;;6.50;3.47;;;33.20;43.80;;;;;;4999710;28;20095;-73
2023/07/09 10:32:04;;;;;;;5.50;2.78;;;33.40;45.60;;;;;;5002967;28;20037;-71
2023/07/09 10:34:55;;;;;;;5.72;2.90;;;33.20;42.20;;;;;;4999298;28;20033;-70
2023/07/09 10:37:29;;;;;;;5.70;2.95;;;33.60;44.40;;;;;;5003419;28;20054;-73
2023/07/09 10:39:58;;;;;;;4.38;3.13;;;33.60;42.50;;;;;;5008508;28;20388;-70
2023/07/09 10:42:29;;;;;;;4.22;2.75;;;33.40;39.90;;;;;;5013434;28;20141;-70
2023/07/09 10:45:03;;;;;;;9.10;3.40;;;33.70;40.80;;;;;;5004845;28;20026;-70
2023/07/09 10:47:34;;;;;;;5.72;3.20;;;33.60;38.60;;;;;;5002727;28;20048;-70
2023/07/09 10:50:02;;;;;;;4.88;2.90;;;33.50;38.90;;;;;;5001843;28;20168;-71
2023/07/09 10:52:32;;;;;;;5.13;3.35;;;34.20;40.50;;;;;;5011450;28;20117;-71
2023/07/09 10:55:37;;;;;;;5.43;2.90;;;34.20;38.20;;;;;;5001641;28;20091;-71
2023/07/09 10:58:24;;;;;;;3.85;2.72;;;34.50;39.70;;;;;;5005122;28;20025;-72
2023/07/09 11:00:49;;;;;;;7.13;3.17;;;33.90;35.40;;;;;;4999815;28;20054;-71
2023/07/09 11:03:21;;;;;;;10.50;3.35;;;34.40;37.60;;;;;;5002720;28;20044;-71
2023/07/09 11:05:49;;;;;;;4.78;2.97;;;34.70;37.40;;;;;;5005115;28;20331;-73
2023/07/09 11:08:21;;;;;;;5.90;2.90;;;35.00;37.20;;;;;;5004145;28;20094;-71
2023/07/09 11:11:02;;;;;;;5.55;3.17;;;35.20;36.20;;;;;;5010441;28;20070;-71
2023/07/09 11:13:40;;;;;;;6.93;3.58;;;35.10;37.60;;;;;;5005739;28;20041;-72
2023/07/09 11:16:07;;;;;;;7.80;3.58;;;34.50;35.60;;;;;;5001682;28;20049;-71
2023/07/09 11:18:34;;;;;;;4.63;2.80;;;35.00;36.00;;;;;;5004309;28;20111;-73
2023/07/09 11:21:14;;;;;;;5.18;3.10;;;35.20;38.60;;;;;;5015616;28;20109;-72
2023/07/09 11:23:45;;;;;;;;;;;35.70;34.70;;;;;;4991922;28;20312;-71
2023/07/09 11:26:23;;;;;;;3.30;2.58;;;35.40;37.90;;;;;;4998883;28;19943;-72
2023/07/09 11:28:53;;;;;;;4.75;2.78;;;35.40;34.50;;;;;;5008493;28;20087;-73
2023/07/09 11:31:34;;;;;;;6.65;2.88;;;35.30;34.10;;;;;;5005062;28;20033;-72
2023/07/09 11:34:07;;;;;;;4.63;3.17;;;35.00;33.70;;;;;;5013818;28;20037;-74
2023/07/09 11:36:34;;;;;;;5.43;3.03;;;35.00;33.60;;;;;;5008926;28;20742;-72
2023/07/09 11:39:00;;;;;;;4.63;3.08;;;35.10;32.70;;;;;;5005280;28;20335;-72
2023/07/09 11:41:46;;;;;;;4.85;3.08;;;34.90;32.20;;;;;;5005590;28;20131;-72
2023/07/09 11:44:18;;;;;;;3.67;2.83;;;34.50;32.40;;;;;;5000777;28;20049;-71
2023/07/09 11:47:04;;;;;;;4.90;2.78;;;35.20;32.90;;;;;;4996459;28;20515;-72
2023/07/09 11:49:43;;;;;;;5.97;2.90;;;35.90;34.20;;;;;;5003555;28;20041;-72
2023/07/09 11:52:10;;;;;;;8.95;3.00;;;35.90;32.90;;;;;;5000694;28;20044;-71
2023/07/09 11:54:37;;;;;;;6.05;2.80;;;35.90;33.20;;;;;;5008044;28;20049;-72
2023/07/09 11:57:09;;;;;;;5.30;3.15;;;35.50;34.50;;;;;;5004362;28;20481;-72
2023/07/09 11:59:40;;;;;;;4.95;3.33;;;35.80;33.10;;;;;;5001139;28;20466;-72
2023/07/09 12:02:13;;;;;;;6.30;3.40;;;35.80;31.00;;;;;;5002341;28;20478;-71
2023/07/09 12:04:39;;;;;;;5.15;3.08;;;35.20;30.20;;;;;;5010822;28;20057;-72
2023/07/09 12:07:06;;;;;;;5.80;3.00;;;35.70;32.20;;;;;;5003642;28;20443;-71
2023/07/09 12:09:36;;;;;;;4.80;2.92;;;36.30;33.80;;;;;;5005272;28;20080;-71
2023/07/09 12:12:02;;;;;;;8.02;3.38;;;35.80;31.90;;;;;;5007175;28;20025;-71
2023/07/09 12:14:28;;;;;;;5.63;3.05;;;35.40;30.70;;;;;;4998581;28;20076;-71
2023/07/09 12:16:54;;;;;;;6.85;3.15;;;36.40;32.70;;;;;;5002157;28;20034;-72
2023/07/09 12:19:22;;;;;;;6.50;3.03;;;36.70;32.20;;;;;;5005538;28;20496;-72
2023/07/09 12:21:55;;;;;;;4.93;2.92;;;37.20;32.60;;;;;;4997911;28;22195;-72
2023/07/09 12:24:24;;;;;;;4.38;2.90;;;36.70;31.10;;;;;;5001465;28;20419;-73
2023/07/09 12:27:02;;;;;;;4.73;2.93;;;37.30;30.20;;;;;;5004612;28;20036;-71
2023/07/09 12:29:29;;;;;;;4.75;2.97;;;36.80;29.30;;;;;;5005021;28;20115;-73
2023/07/09 12:32:02;;;;;;;5.30;2.92;;;36.90;30.80;;;;;;5005243;28;20084;-73
2023/07/09 12:34:31;;;;;;;4.30;2.83;;;37.40;31.20;;;;;;5002432;28;21442;-73
2023/07/09 12:36:56;;;;;;;6.35;3.03;;;37.60;30.60;;;;;;5010276;28;20358;-74
2023/07/09 12:39:28;;;;;;;5.43;3.08;;;36.90;30.20;;;;;;5007463;28;20112;-73
2023/07/09 12:41:56;;;;;;;3.53;2.80;;;37.40;28.60;;;;;;5008674;28;20021;-71
2023/07/09 12:44:24;;;;;;;4.63;2.65;;;37.50;31.80;;;;;;5003602;28;20473;-71
2023/07/09 12:46:51;;;;;;;5.88;3.20;;;37.60;32.30;;;;;;5006366;28;20310;-71
2023/07/09 12:49:21;;;;;;;6.38;3.17;;;37.80;29.00;;;;;;5006529;28;20025;-71
2023/07/09 12:51:47;;;;;;;5.75;3.05;;;38.40;31.40;;;;;;5003436;28;20192;-70
2023/07/09 12:54:16;;;;;;;7.07;3.05;;;38.60;31.80;;;;;;5006860;28;20142;-69